sensor_id;sensor_type;location;lat;lon;timestamp;temperature;humidity
19214;DHT22;9741;51.020;5.304;2023-03-09T00:01:17;4.20;67.70
19214;DHT22;9741;51.020;5.304;2023-03-09T00:03:45;4.30;67.90
19214;DHT22;9741;51.020;5.304;2023-03-09T00:06:12;4.30;67.80
19214;DHT22;9741;51.020;5.304;2023-03-09T00:08:39;4.30;67.80
19214;DHT22;9741;51.020;5.304;2023-03-09T00:11:07;4.30;67.70
19214;DHT22;9741;51.020;5.304;2023-03-09T00:13:35;4.30;67.80
19214;DHT22;9741;51.020;5.304;2023-03-09T00:16:10;4.30;68.30
19214;DHT22;9741;51.020;5.304;2023-03-09T00:18:39;4.30;67.70
19214;DHT22;9741;51.020;5.304;2023-03-09T00:21:07;4.30;67.80
19214;DHT22;9741;51.020;5.304;2023-03-09T00:23:55;4.30;67.90
19214;DHT22;9741;51.020;5.304;2023-03-09T00:26:22;4.30;67.90
19214;DHT22;9741;51.020;5.304;2023-03-09T00:28:49;4.30;67.90
19214;DHT22;9741;51.020;5.304;2023-03-09T00:31:16;4.30;67.90
19214;DHT22;9741;51.020;5.304;2023-03-09T00:33:46;4.30;67.90
19214;DHT22;9741;51.020;5.304;2023-03-09T00:36:14;4.30;67.90
19214;DHT22;9741;51.020;5.304;2023-03-09T00:38:42;4.30;67.90
19214;DHT22;9741;51.020;5.304;2023-03-09T00:41:09;4.30;67.90
19214;DHT22;9741;51.020;5.304;2023-03-09T00:43:36;4.30;68.00
19214;DHT22;9741;51.020;5.304;2023-03-09T00:46:04;4.30;67.90
19214;DHT22;9741;51.020;5.304;2023-03-09T00:48:31;4.30;67.90
19214;DHT22;9741;51.020;5.304;2023-03-09T00:50:59;4.40;68.00
19214;DHT22;9741;51.020;5.304;2023-03-09T00:53:26;4.40;68.00
19214;DHT22;9741;51.020;5.304;2023-03-09T00:55:54;4.40;68.00
19214;DHT22;9741;51.020;5.304;2023-03-09T00:58:21;4.40;67.90
19214;DHT22;9741;51.020;5.304;2023-03-09T01:00:49;4.40;67.90
19214;DHT22;9741;51.020;5.304;2023-03-09T01:03:16;4.40;68.00
19214;DHT22;9741;51.020;5.304;2023-03-09T01:05:43;4.30;67.80
19214;DHT22;9741;51.020;5.304;2023-03-09T01:08:12;4.30;67.90
19214;DHT22;9741;51.020;5.304;2023-03-09T01:10:40;4.30;67.90
19214;DHT22;9741;51.020;5.304;2023-03-09T01:13:08;4.30;67.80
19214;DHT22;9741;51.020;5.304;2023-03-09T01:15:38;4.20;67.80
19214;DHT22;9741;51.020;5.304;2023-03-09T01:18:05;4.20;67.80
19214;DHT22;9741;51.020;5.304;2023-03-09T01:20:32;4.20;67.90
19214;DHT22;9741;51.020;5.304;2023-03-09T01:22:59;4.20;67.90
19214;DHT22;9741;51.020;5.304;2023-03-09T01:25:28;4.20;67.90
19214;DHT22;9741;51.020;5.304;2023-03-09T01:27:56;4.20;67.90
19214;DHT22;9741;51.020;5.304;2023-03-09T01:30:23;4.20;67.90
19214;DHT22;9741;51.020;5.304;2023-03-09T01:32:50;4.20;68.00
19214;DHT22;9741;51.020;5.304;2023-03-09T01:35:19;4.20;68.00
19214;DHT22;9741;51.020;5.304;2023-03-09T01:37:46;4.20;67.90
19214;DHT22;9741;51.020;5.304;2023-03-09T01:40:17;4.20;68.10
19214;DHT22;9741;51.020;5.304;2023-03-09T01:42:53;4.20;68.10
19214;DHT22;9741;51.020;5.304;2023-03-09T01:48:24;4.30;68.10
19214;DHT22;9741;51.020;5.304;2023-03-09T01:50:52;4.30;68.10
19214;DHT22;9741;51.020;5.304;2023-03-09T01:53:19;4.30;68.10
19214;DHT22;9741;51.020;5.304;2023-03-09T01:55:48;4.40;68.10
19214;DHT22;9741;51.020;5.304;2023-03-09T01:58:20;4.40;68.20
19214;DHT22;9741;51.020;5.304;2023-03-09T02:00:50;4.40;68.10
19214;DHT22;9741;51.020;5.304;2023-03-09T02:03:22;4.40;68.00
19214;DHT22;9741;51.020;5.304;2023-03-09T02:05:54;4.40;68.00
19214;DHT22;9741;51.020;5.304;2023-03-09T02:08:23;4.50;68.10
19214;DHT22;9741;51.020;5.304;2023-03-09T02:10:55;4.50;68.00
19214;DHT22;9741;51.020;5.304;2023-03-09T02:13:27;4.50;68.00
19214;DHT22;9741;51.020;5.304;2023-03-09T02:15:55;4.40;67.90
19214;DHT22;9741;51.020;5.304;2023-03-09T02:18:24;4.40;67.80
19214;DHT22;9741;51.020;5.304;2023-03-09T02:20:57;4.40;67.70
19214;DHT22;9741;51.020;5.304;2023-03-09T02:23:35;4.30;67.70
19214;DHT22;9741;51.020;5.304;2023-03-09T02:26:09;4.30;67.80
19214;DHT22;9741;51.020;5.304;2023-03-09T02:28:41;4.30;67.80
19214;DHT22;9741;51.020;5.304;2023-03-09T02:31:09;4.30;67.90
19214;DHT22;9741;51.020;5.304;2023-03-09T02:33:36;4.30;68.00
19214;DHT22;9741;51.020;5.304;2023-03-09T02:36:04;4.30;68.10
19214;DHT22;9741;51.020;5.304;2023-03-09T02:38:31;4.30;68.00
19214;DHT22;9741;51.020;5.304;2023-03-09T02:41:00;4.30;68.10
19214;DHT22;9741;51.020;5.304;2023-03-09T02:43:32;4.30;68.10
19214;DHT22;9741;51.020;5.304;2023-03-09T02:46:02;4.30;68.00
19214;DHT22;9741;51.020;5.304;2023-03-09T02:48:29;4.30;68.10
19214;DHT22;9741;51.020;5.304;2023-03-09T02:50:56;4.30;68.10
19214;DHT22;9741;51.020;5.304;2023-03-09T02:53:23;4.30;68.10
19214;DHT22;9741;51.020;5.304;2023-03-09T02:55:50;4.30;68.10
19214;DHT22;9741;51.020;5.304;2023-03-09T02:58:19;4.30;68.10
19214;DHT22;9741;51.020;5.304;2023-03-09T03:00:46;4.30;68.10
19214;DHT22;9741;51.020;5.304;2023-03-09T03:03:15;4.30;68.00
19214;DHT22;9741;51.020;5.304;2023-03-09T03:05:44;4.30;68.10
19214;DHT22;9741;51.020;5.304;2023-03-09T03:08:11;4.30;68.10
19214;DHT22;9741;51.020;5.304;2023-03-09T03:10:38;4.30;68.10
19214;DHT22;9741;51.020;5.304;2023-03-09T03:13:05;4.30;68.10
19214;DHT22;9741;51.020;5.304;2023-03-09T03:15:33;4.30;68.10
19214;DHT22;9741;51.020;5.304;2023-03-09T03:18:00;4.30;68.10
19214;DHT22;9741;51.020;5.304;2023-03-09T03:20:30;4.30;67.90
19214;DHT22;9741;51.020;5.304;2023-03-09T03:23:05;4.30;68.00
19214;DHT22;9741;51.020;5.304;2023-03-09T03:25:34;4.20;67.90
19214;DHT22;9741;51.020;5.304;2023-03-09T03:28:01;4.20;68.00
19214;DHT22;9741;51.020;5.304;2023-03-09T03:30:29;4.20;68.10
19214;DHT22;9741;51.020;5.304;2023-03-09T03:33:03;4.20;68.20
19214;DHT22;9741;51.020;5.304;2023-03-09T03:35:32;4.20;68.30
19214;DHT22;9741;51.020;5.304;2023-03-09T03:37:59;4.20;68.20
19214;DHT22;9741;51.020;5.304;2023-03-09T03:40:26;4.20;68.10
19214;DHT22;9741;51.020;5.304;2023-03-09T03:42:55;4.20;68.20
19214;DHT22;9741;51.020;5.304;2023-03-09T03:45:22;4.20;68.20
19214;DHT22;9741;51.020;5.304;2023-03-09T03:47:51;4.30;68.40
19214;DHT22;9741;51.020;5.304;2023-03-09T03:50:18;4.30;68.40
19214;DHT22;9741;51.020;5.304;2023-03-09T03:52:47;4.30;68.40
19214;DHT22;9741;51.020;5.304;2023-03-09T03:55:14;4.30;68.30
19214;DHT22;9741;51.020;5.304;2023-03-09T03:57:41;4.20;68.20
19214;DHT22;9741;51.020;5.304;2023-03-09T04:00:09;4.30;68.30
19214;DHT22;9741;51.020;5.304;2023-03-09T04:02:37;4.20;68.20
19214;DHT22;9741;51.020;5.304;2023-03-09T04:05:05;4.20;68.20
19214;DHT22;9741;51.020;5.304;2023-03-09T04:07:32;4.20;68.20
19214;DHT22;9741;51.020;5.304;2023-03-09T04:10:01;4.20;68.20
19214;DHT22;9741;51.020;5.304;2023-03-09T04:12:28;4.20;68.30
19214;DHT22;9741;51.020;5.304;2023-03-09T04:14:55;4.20;68.30
19214;DHT22;9741;51.020;5.304;2023-03-09T04:17:22;4.20;68.20
19214;DHT22;9741;51.020;5.304;2023-03-09T04:19:53;4.20;68.30
19214;DHT22;9741;51.020;5.304;2023-03-09T04:22:22;4.20;68.30
19214;DHT22;9741;51.020;5.304;2023-03-09T04:24:50;4.20;68.30
19214;DHT22;9741;51.020;5.304;2023-03-09T04:27:19;4.20;68.40
19214;DHT22;9741;51.020;5.304;2023-03-09T04:29:47;4.20;68.40
19214;DHT22;9741;51.020;5.304;2023-03-09T04:32:14;4.20;68.40
19214;DHT22;9741;51.020;5.304;2023-03-09T04:34:41;4.10;68.10
19214;DHT22;9741;51.020;5.304;2023-03-09T04:37:08;4.10;68.20
19214;DHT22;9741;51.020;5.304;2023-03-09T04:39:37;4.10;68.30
19214;DHT22;9741;51.020;5.304;2023-03-09T04:42:05;4.10;68.30
19214;DHT22;9741;51.020;5.304;2023-03-09T04:44:33;4.10;68.30
19214;DHT22;9741;51.020;5.304;2023-03-09T04:47:00;4.10;68.40
19214;DHT22;9741;51.020;5.304;2023-03-09T04:49:28;4.10;68.40
19214;DHT22;9741;51.020;5.304;2023-03-09T04:51:56;4.00;68.40
19214;DHT22;9741;51.020;5.304;2023-03-09T04:54:23;4.10;68.50
19214;DHT22;9741;51.020;5.304;2023-03-09T04:56:50;4.10;68.60
19214;DHT22;9741;51.020;5.304;2023-03-09T04:59:17;4.10;68.60
19214;DHT22;9741;51.020;5.304;2023-03-09T05:01:46;4.10;68.60
19214;DHT22;9741;51.020;5.304;2023-03-09T05:04:13;4.10;68.50
19214;DHT22;9741;51.020;5.304;2023-03-09T05:06:42;4.10;68.50
19214;DHT22;9741;51.020;5.304;2023-03-09T05:09:10;4.20;68.60
19214;DHT22;9741;51.020;5.304;2023-03-09T05:11:37;4.20;68.60
19214;DHT22;9741;51.020;5.304;2023-03-09T05:14:04;4.20;68.60
19214;DHT22;9741;51.020;5.304;2023-03-09T05:16:31;4.20;68.50
19214;DHT22;9741;51.020;5.304;2023-03-09T05:19:00;4.20;68.50
19214;DHT22;9741;51.020;5.304;2023-03-09T05:21:27;4.20;68.40
19214;DHT22;9741;51.020;5.304;2023-03-09T05:23:54;4.20;68.50
19214;DHT22;9741;51.020;5.304;2023-03-09T05:26:21;4.20;68.50
19214;DHT22;9741;51.020;5.304;2023-03-09T05:28:49;4.20;68.50
19214;DHT22;9741;51.020;5.304;2023-03-09T05:31:16;4.20;68.60
19214;DHT22;9741;51.020;5.304;2023-03-09T05:33:44;4.20;68.60
19214;DHT22;9741;51.020;5.304;2023-03-09T05:36:16;4.10;68.40
19214;DHT22;9741;51.020;5.304;2023-03-09T05:38:44;4.20;68.60
19214;DHT22;9741;51.020;5.304;2023-03-09T05:41:11;4.10;68.50
19214;DHT22;9741;51.020;5.304;2023-03-09T05:43:38;4.10;68.60
19214;DHT22;9741;51.020;5.304;2023-03-09T05:46:10;4.10;68.60
19214;DHT22;9741;51.020;5.304;2023-03-09T05:48:38;4.10;68.60
19214;DHT22;9741;51.020;5.304;2023-03-09T05:51:06;4.10;68.60
19214;DHT22;9741;51.020;5.304;2023-03-09T05:53:35;4.10;68.60
19214;DHT22;9741;51.020;5.304;2023-03-09T05:56:03;4.10;68.60
19214;DHT22;9741;51.020;5.304;2023-03-09T05:58:31;4.10;68.60
19214;DHT22;9741;51.020;5.304;2023-03-09T06:00:58;4.10;68.60
19214;DHT22;9741;51.020;5.304;2023-03-09T06:03:25;4.10;68.60
19214;DHT22;9741;51.020;5.304;2023-03-09T06:06:01;4.10;69.20
19214;DHT22;9741;51.020;5.304;2023-03-09T06:08:28;4.10;68.70
19214;DHT22;9741;51.020;5.304;2023-03-09T06:10:59;4.10;68.70
19214;DHT22;9741;51.020;5.304;2023-03-09T06:13:27;4.10;68.80
19214;DHT22;9741;51.020;5.304;2023-03-09T06:15:57;4.10;68.80
19214;DHT22;9741;51.020;5.304;2023-03-09T06:18:24;4.10;68.80
19214;DHT22;9741;51.020;5.304;2023-03-09T06:20:54;4.10;68.80
19214;DHT22;9741;51.020;5.304;2023-03-09T06:23:21;4.20;69.40
19214;DHT22;9741;51.020;5.304;2023-03-09T06:25:48;4.20;68.90
19214;DHT22;9741;51.020;5.304;2023-03-09T06:28:16;4.20;68.90
19214;DHT22;9741;51.020;5.304;2023-03-09T06:30:43;4.20;68.80
19214;DHT22;9741;51.020;5.304;2023-03-09T06:33:14;4.20;68.80
19214;DHT22;9741;51.020;5.304;2023-03-09T06:35:47;4.20;68.80
19214;DHT22;9741;51.020;5.304;2023-03-09T06:38:18;4.30;69.00
19214;DHT22;9741;51.020;5.304;2023-03-09T06:40:45;4.30;68.90
19214;DHT22;9741;51.020;5.304;2023-03-09T06:43:16;4.30;69.00
19214;DHT22;9741;51.020;5.304;2023-03-09T06:45:44;4.40;69.20
19214;DHT22;9741;51.020;5.304;2023-03-09T06:48:12;4.40;69.10
19214;DHT22;9741;51.020;5.304;2023-03-09T06:50:39;4.50;69.20
19214;DHT22;9741;51.020;5.304;2023-03-09T06:53:07;4.50;69.10
19214;DHT22;9741;51.020;5.304;2023-03-09T06:55:36;4.60;69.10
19214;DHT22;9741;51.020;5.304;2023-03-09T06:58:03;4.60;69.10
19214;DHT22;9741;51.020;5.304;2023-03-09T07:00:32;4.70;69.10
19214;DHT22;9741;51.020;5.304;2023-03-09T07:03:03;4.70;68.90
19214;DHT22;9741;51.020;5.304;2023-03-09T07:05:30;4.70;68.80
19214;DHT22;9741;51.020;5.304;2023-03-09T07:07:57;4.70;68.90
19214;DHT22;9741;51.020;5.304;2023-03-09T07:10:25;4.70;68.80
19214;DHT22;9741;51.020;5.304;2023-03-09T07:12:52;4.70;68.90
19214;DHT22;9741;51.020;5.304;2023-03-09T07:15:19;4.70;69.00
19214;DHT22;9741;51.020;5.304;2023-03-09T07:17:47;4.80;69.20
19214;DHT22;9741;51.020;5.304;2023-03-09T07:20:16;4.90;69.30
19214;DHT22;9741;51.020;5.304;2023-03-09T07:22:43;5.00;69.30
19214;DHT22;9741;51.020;5.304;2023-03-09T07:25:10;5.00;69.30
19214;DHT22;9741;51.020;5.304;2023-03-09T07:27:37;5.10;69.30
19214;DHT22;9741;51.020;5.304;2023-03-09T07:30:06;5.20;69.20
19214;DHT22;9741;51.020;5.304;2023-03-09T07:32:33;5.30;69.20
19214;DHT22;9741;51.020;5.304;2023-03-09T07:35:02;5.40;69.30
19214;DHT22;9741;51.020;5.304;2023-03-09T07:37:29;5.50;69.20
19214;DHT22;9741;51.020;5.304;2023-03-09T07:39:56;5.50;69.20
19214;DHT22;9741;51.020;5.304;2023-03-09T07:42:24;5.70;69.40
19214;DHT22;9741;51.020;5.304;2023-03-09T07:44:51;5.80;69.40
19214;DHT22;9741;51.020;5.304;2023-03-09T07:47:20;5.90;69.30
19214;DHT22;9741;51.020;5.304;2023-03-09T07:49:49;6.00;69.10
19214;DHT22;9741;51.020;5.304;2023-03-09T07:52:18;6.20;69.10
19214;DHT22;9741;51.020;5.304;2023-03-09T07:54:45;6.20;68.90
19214;DHT22;9741;51.020;5.304;2023-03-09T07:57:12;6.30;68.90
19214;DHT22;9741;51.020;5.304;2023-03-09T07:59:39;6.30;68.70
19214;DHT22;9741;51.020;5.304;2023-03-09T08:02:07;6.40;68.80
19214;DHT22;9741;51.020;5.304;2023-03-09T08:04:35;6.40;68.70
19214;DHT22;9741;51.020;5.304;2023-03-09T08:07:02;6.40;68.60
19214;DHT22;9741;51.020;5.304;2023-03-09T08:09:31;6.50;68.70
19214;DHT22;9741;51.020;5.304;2023-03-09T08:11:58;6.50;68.70
19214;DHT22;9741;51.020;5.304;2023-03-09T08:14:27;6.50;68.70
19214;DHT22;9741;51.020;5.304;2023-03-09T08:16:54;6.60;68.70
19214;DHT22;9741;51.020;5.304;2023-03-09T08:19:21;6.60;68.60
19214;DHT22;9741;51.020;5.304;2023-03-09T08:21:49;6.70;68.60
19214;DHT22;9741;51.020;5.304;2023-03-09T08:24:17;6.70;68.50
19214;DHT22;9741;51.020;5.304;2023-03-09T08:27:00;6.80;68.60
19214;DHT22;9741;51.020;5.304;2023-03-09T08:29:28;6.90;68.60
19214;DHT22;9741;51.020;5.304;2023-03-09T08:31:58;7.00;68.60
19214;DHT22;9741;51.020;5.304;2023-03-09T08:34:25;7.00;68.50
19214;DHT22;9741;51.020;5.304;2023-03-09T08:36:56;7.10;68.60
19214;DHT22;9741;51.020;5.304;2023-03-09T08:39:24;7.10;68.60
19214;DHT22;9741;51.020;5.304;2023-03-09T08:41:52;7.20;68.40
19214;DHT22;9741;51.020;5.304;2023-03-09T08:44:21;7.20;68.50
19214;DHT22;9741;51.020;5.304;2023-03-09T08:46:49;7.30;68.60
19214;DHT22;9741;51.020;5.304;2023-03-09T08:49:19;7.40;68.50
19214;DHT22;9741;51.020;5.304;2023-03-09T08:51:47;7.50;68.50
19214;DHT22;9741;51.020;5.304;2023-03-09T08:54:16;7.50;68.40
19214;DHT22;9741;51.020;5.304;2023-03-09T08:56:46;7.60;68.20
19214;DHT22;9741;51.020;5.304;2023-03-09T08:59:15;7.60;68.30
19214;DHT22;9741;51.020;5.304;2023-03-09T09:01:43;7.60;68.40
19214;DHT22;9741;51.020;5.304;2023-03-09T09:04:14;7.70;68.30
19214;DHT22;9741;51.020;5.304;2023-03-09T09:06:44;7.70;68.30
19214;DHT22;9741;51.020;5.304;2023-03-09T09:09:11;7.70;68.30
19214;DHT22;9741;51.020;5.304;2023-03-09T09:15:13;7.70;68.10
19214;DHT22;9741;51.020;5.304;2023-03-09T09:17:47;7.70;68.10
19214;DHT22;9741;51.020;5.304;2023-03-09T09:20:15;7.70;68.20
19214;DHT22;9741;51.020;5.304;2023-03-09T09:22:44;7.70;68.20
19214;DHT22;9741;51.020;5.304;2023-03-09T09:25:15;7.70;68.40
19214;DHT22;9741;51.020;5.304;2023-03-09T09:27:43;7.80;68.50
19214;DHT22;9741;51.020;5.304;2023-03-09T09:30:11;7.80;68.60
19214;DHT22;9741;51.020;5.304;2023-03-09T09:32:39;7.90;68.60
19214;DHT22;9741;51.020;5.304;2023-03-09T09:35:09;8.00;68.50
19214;DHT22;9741;51.020;5.304;2023-03-09T09:37:40;8.00;68.40
19214;DHT22;9741;51.020;5.304;2023-03-09T09:40:12;8.10;68.50
19214;DHT22;9741;51.020;5.304;2023-03-09T09:42:41;8.10;68.40
19214;DHT22;9741;51.020;5.304;2023-03-09T09:45:32;8.10;68.40
19214;DHT22;9741;51.020;5.304;2023-03-09T09:48:04;8.20;68.60
19214;DHT22;9741;51.020;5.304;2023-03-09T09:50:52;8.20;68.50
19214;DHT22;9741;51.020;5.304;2023-03-09T09:53:36;8.30;68.70
19214;DHT22;9741;51.020;5.304;2023-03-09T09:56:12;8.50;68.80
19214;DHT22;9741;51.020;5.304;2023-03-09T09:58:45;8.60;68.70
19214;DHT22;9741;51.020;5.304;2023-03-09T10:01:20;8.70;68.60
19214;DHT22;9741;51.020;5.304;2023-03-09T10:03:50;8.80;68.40
19214;DHT22;9741;51.020;5.304;2023-03-09T10:06:24;8.80;68.40
19214;DHT22;9741;51.020;5.304;2023-03-09T10:08:57;8.90;68.50
19214;DHT22;9741;51.020;5.304;2023-03-09T10:11:30;9.10;68.50
19214;DHT22;9741;51.020;5.304;2023-03-09T10:14:03;9.10;68.40
19214;DHT22;9741;51.020;5.304;2023-03-09T10:16:37;9.20;68.30
19214;DHT22;9741;51.020;5.304;2023-03-09T10:19:14;9.30;68.30
19214;DHT22;9741;51.020;5.304;2023-03-09T10:21:51;9.40;68.20
19214;DHT22;9741;51.020;5.304;2023-03-09T10:24:22;9.40;68.00
19214;DHT22;9741;51.020;5.304;2023-03-09T10:27:11;9.40;68.00
19214;DHT22;9741;51.020;5.304;2023-03-09T10:29:53;9.40;67.90
19214;DHT22;9741;51.020;5.304;2023-03-09T10:32:26;9.40;68.00
19214;DHT22;9741;51.020;5.304;2023-03-09T10:35:08;9.40;68.00
19214;DHT22;9741;51.020;5.304;2023-03-09T10:37:45;9.50;68.20
19214;DHT22;9741;51.020;5.304;2023-03-09T10:40:18;9.70;68.40
19214;DHT22;9741;51.020;5.304;2023-03-09T10:42:47;9.90;68.30
19214;DHT22;9741;51.020;5.304;2023-03-09T10:45:26;10.10;67.20
19214;DHT22;9741;51.020;5.304;2023-03-09T10:47:57;10.20;67.00
19214;DHT22;9741;51.020;5.304;2023-03-09T10:50:28;10.20;66.80
19214;DHT22;9741;51.020;5.304;2023-03-09T10:53:21;10.20;66.60
19214;DHT22;9741;51.020;5.304;2023-03-09T10:55:49;10.30;66.70
19214;DHT22;9741;51.020;5.304;2023-03-09T10:58:20;10.20;66.60
19214;DHT22;9741;51.020;5.304;2023-03-09T11:00:50;10.20;66.80
19214;DHT22;9741;51.020;5.304;2023-03-09T11:03:20;10.20;66.80
19214;DHT22;9741;51.020;5.304;2023-03-09T11:05:48;10.30;66.90
19214;DHT22;9741;51.020;5.304;2023-03-09T11:08:25;10.40;66.80
19214;DHT22;9741;51.020;5.304;2023-03-09T11:11:04;10.40;66.60
19214;DHT22;9741;51.020;5.304;2023-03-09T11:13:32;10.40;66.40
19214;DHT22;9741;51.020;5.304;2023-03-09T11:16:06;10.30;66.10
19214;DHT22;9741;51.020;5.304;2023-03-09T11:18:33;10.20;66.00
19214;DHT22;9741;51.020;5.304;2023-03-09T11:21:00;10.10;66.20
19214;DHT22;9741;51.020;5.304;2023-03-09T11:23:31;10.10;66.50
19214;DHT22;9741;51.020;5.304;2023-03-09T11:26:12;10.20;66.80
19214;DHT22;9741;51.020;5.304;2023-03-09T11:28:45;10.10;66.60
19214;DHT22;9741;51.020;5.304;2023-03-09T11:31:16;10.00;66.50
19214;DHT22;9741;51.020;5.304;2023-03-09T11:33:45;10.00;66.60
19214;DHT22;9741;51.020;5.304;2023-03-09T11:36:16;9.90;67.60
19214;DHT22;9741;51.020;5.304;2023-03-09T11:38:47;9.90;67.90
19214;DHT22;9741;51.020;5.304;2023-03-09T11:41:19;9.90;68.00
19214;DHT22;9741;51.020;5.304;2023-03-09T11:43:55;9.90;68.00
19214;DHT22;9741;51.020;5.304;2023-03-09T11:46:30;10.00;67.30
19214;DHT22;9741;51.020;5.304;2023-03-09T11:49:06;10.00;67.30
19214;DHT22;9741;51.020;5.304;2023-03-09T11:51:40;10.10;67.20
19214;DHT22;9741;51.020;5.304;2023-03-09T11:54:19;10.20;67.30
19214;DHT22;9741;51.020;5.304;2023-03-09T11:56:48;10.20;67.00
19214;DHT22;9741;51.020;5.304;2023-03-09T11:59:18;10.10;66.90
19214;DHT22;9741;51.020;5.304;2023-03-09T12:01:54;10.10;67.00
19214;DHT22;9741;51.020;5.304;2023-03-09T12:04:31;10.10;67.10
19214;DHT22;9741;51.020;5.304;2023-03-09T12:07:02;10.00;67.00
19214;DHT22;9741;51.020;5.304;2023-03-09T12:09:47;9.90;68.00
19214;DHT22;9741;51.020;5.304;2023-03-09T12:12:24;9.90;68.00
19214;DHT22;9741;51.020;5.304;2023-03-09T12:15:01;9.80;68.20
19214;DHT22;9741;51.020;5.304;2023-03-09T12:17:32;9.90;68.60
19214;DHT22;9741;51.020;5.304;2023-03-09T12:20:06;10.00;67.70
19214;DHT22;9741;51.020;5.304;2023-03-09T12:22:38;10.00;67.50
19214;DHT22;9741;51.020;5.304;2023-03-09T12:25:17;10.00;67.50
19214;DHT22;9741;51.020;5.304;2023-03-09T12:27:53;10.00;67.50
19214;DHT22;9741;51.020;5.304;2023-03-09T12:30:28;10.00;67.60
19214;DHT22;9741;51.020;5.304;2023-03-09T12:32:57;10.00;67.60
19214;DHT22;9741;51.020;5.304;2023-03-09T12:38:25;10.10;67.70
19214;DHT22;9741;51.020;5.304;2023-03-09T12:41:25;10.10;67.70
19214;DHT22;9741;51.020;5.304;2023-03-09T12:43:55;10.20;67.90
19214;DHT22;9741;51.020;5.304;2023-03-09T12:46:50;10.40;68.20
19214;DHT22;9741;51.020;5.304;2023-03-09T12:49:22;10.60;68.00
19214;DHT22;9741;51.020;5.304;2023-03-09T12:55:13;10.90;68.10
19214;DHT22;9741;51.020;5.304;2023-03-09T12:57:48;11.10;68.10
19214;DHT22;9741;51.020;5.304;2023-03-09T13:00:29;11.20;68.00
19214;DHT22;9741;51.020;5.304;2023-03-09T13:03:01;11.30;68.00
19214;DHT22;9741;51.020;5.304;2023-03-09T13:05:41;11.50;67.90
19214;DHT22;9741;51.020;5.304;2023-03-09T13:08:30;11.50;67.80
19214;DHT22;9741;51.020;5.304;2023-03-09T13:11:25;11.60;67.80
19214;DHT22;9741;51.020;5.304;2023-03-09T13:13:59;11.70;68.00
19214;DHT22;9741;51.020;5.304;2023-03-09T13:17:27;11.90;68.10
19214;DHT22;9741;51.020;5.304;2023-03-09T13:20:15;12.00;68.00
19214;DHT22;9741;51.020;5.304;2023-03-09T13:22:44;12.10;67.90
19214;DHT22;9741;51.020;5.304;2023-03-09T13:25:46;12.20;67.90
19214;DHT22;9741;51.020;5.304;2023-03-09T13:28:38;12.20;67.90
19214;DHT22;9741;51.020;5.304;2023-03-09T13:31:22;12.30;67.70
19214;DHT22;9741;51.020;5.304;2023-03-09T13:33:53;12.40;67.80
19214;DHT22;9741;51.020;5.304;2023-03-09T13:36:26;12.50;67.90
19214;DHT22;9741;51.020;5.304;2023-03-09T13:38:57;12.60;67.90
19214;DHT22;9741;51.020;5.304;2023-03-09T13:41:29;12.70;68.10
19214;DHT22;9741;51.020;5.304;2023-03-09T13:43:59;12.90;68.20
19214;DHT22;9741;51.020;5.304;2023-03-09T13:46:30;13.10;68.30
19214;DHT22;9741;51.020;5.304;2023-03-09T13:49:02;13.40;68.20
19214;DHT22;9741;51.020;5.304;2023-03-09T13:51:45;13.70;68.10
19214;DHT22;9741;51.020;5.304;2023-03-09T13:54:47;13.90;67.80
19214;DHT22;9741;51.020;5.304;2023-03-09T13:57:20;14.10;67.70
19214;DHT22;9741;51.020;5.304;2023-03-09T14:00:17;14.20;67.60
19214;DHT22;9741;51.020;5.304;2023-03-09T14:02:45;14.30;67.40
19214;DHT22;9741;51.020;5.304;2023-03-09T14:05:18;14.40;67.40
19214;DHT22;9741;51.020;5.304;2023-03-09T14:07:52;14.40;67.20
19214;DHT22;9741;51.020;5.304;2023-03-09T14:10:24;14.40;67.70
19214;DHT22;9741;51.020;5.304;2023-03-09T14:12:54;14.40;67.70
19214;DHT22;9741;51.020;5.304;2023-03-09T14:15:22;14.40;67.20
19214;DHT22;9741;51.020;5.304;2023-03-09T14:17:55;14.40;67.20
19214;DHT22;9741;51.020;5.304;2023-03-09T14:20:25;14.40;67.20
19214;DHT22;9741;51.020;5.304;2023-03-09T14:22:59;14.30;67.20
19214;DHT22;9741;51.020;5.304;2023-03-09T14:25:41;14.20;67.20
19214;DHT22;9741;51.020;5.304;2023-03-09T14:28:23;14.10;67.40
19214;DHT22;9741;51.020;5.304;2023-03-09T14:30:52;14.10;67.50
19214;DHT22;9741;51.020;5.304;2023-03-09T14:33:27;14.00;67.60
19214;DHT22;9741;51.020;5.304;2023-03-09T14:36:12;13.90;67.70
19214;DHT22;9741;51.020;5.304;2023-03-09T14:38:53;14.00;68.00
19214;DHT22;9741;51.020;5.304;2023-03-09T14:41:23;13.90;68.10
19214;DHT22;9741;51.020;5.304;2023-03-09T14:43:51;13.90;68.10
19214;DHT22;9741;51.020;5.304;2023-03-09T14:46:20;13.90;68.10
19214;DHT22;9741;51.020;5.304;2023-03-09T14:48:48;13.90;68.20
19214;DHT22;9741;51.020;5.304;2023-03-09T14:51:19;13.80;68.20
19214;DHT22;9741;51.020;5.304;2023-03-09T14:53:55;13.80;68.40
19214;DHT22;9741;51.020;5.304;2023-03-09T14:56:25;13.80;68.50
19214;DHT22;9741;51.020;5.304;2023-03-09T14:58:56;13.80;68.50
19214;DHT22;9741;51.020;5.304;2023-03-09T15:01:27;13.80;68.60
19214;DHT22;9741;51.020;5.304;2023-03-09T15:03:56;13.80;68.60
19214;DHT22;9741;51.020;5.304;2023-03-09T15:06:25;13.80;68.70
19214;DHT22;9741;51.020;5.304;2023-03-09T15:08:53;13.80;68.70
19214;DHT22;9741;51.020;5.304;2023-03-09T15:11:22;13.80;68.70
19214;DHT22;9741;51.020;5.304;2023-03-09T15:13:50;13.90;68.60
19214;DHT22;9741;51.020;5.304;2023-03-09T15:16:20;13.90;68.40
19214;DHT22;9741;51.020;5.304;2023-03-09T15:18:47;13.90;68.40
19214;DHT22;9741;51.020;5.304;2023-03-09T15:21:15;13.90;68.20
19214;DHT22;9741;51.020;5.304;2023-03-09T15:23:42;13.90;68.10
19214;DHT22;9741;51.020;5.304;2023-03-09T15:26:13;13.90;68.00
19214;DHT22;9741;51.020;5.304;2023-03-09T15:28:41;13.90;68.00
19214;DHT22;9741;51.020;5.304;2023-03-09T15:31:10;13.90;68.00
19214;DHT22;9741;51.020;5.304;2023-03-09T15:33:41;14.00;67.90
19214;DHT22;9741;51.020;5.304;2023-03-09T15:36:08;14.00;67.70
19214;DHT22;9741;51.020;5.304;2023-03-09T15:38:35;14.00;67.40
19214;DHT22;9741;51.020;5.304;2023-03-09T15:41:05;14.00;67.40
19214;DHT22;9741;51.020;5.304;2023-03-09T15:43:34;14.00;67.30
19214;DHT22;9741;51.020;5.304;2023-03-09T15:46:02;14.00;67.30
19214;DHT22;9741;51.020;5.304;2023-03-09T15:48:30;14.00;67.30
19214;DHT22;9741;51.020;5.304;2023-03-09T15:50:57;14.10;67.40
19214;DHT22;9741;51.020;5.304;2023-03-09T15:53:25;14.10;67.30
19214;DHT22;9741;51.020;5.304;2023-03-09T15:55:55;14.10;67.10
19214;DHT22;9741;51.020;5.304;2023-03-09T15:58:23;14.20;67.00
19214;DHT22;9741;51.020;5.304;2023-03-09T16:00:56;14.20;67.00
19214;DHT22;9741;51.020;5.304;2023-03-09T16:03:23;14.20;66.80
19214;DHT22;9741;51.020;5.304;2023-03-09T16:05:50;14.20;66.80
19214;DHT22;9741;51.020;5.304;2023-03-09T16:08:17;14.20;66.80
19214;DHT22;9741;51.020;5.304;2023-03-09T16:10:44;14.20;66.80
19214;DHT22;9741;51.020;5.304;2023-03-09T16:13:11;14.20;66.70
19214;DHT22;9741;51.020;5.304;2023-03-09T16:15:39;14.10;66.70
19214;DHT22;9741;51.020;5.304;2023-03-09T16:18:08;14.10;66.80
19214;DHT22;9741;51.020;5.304;2023-03-09T16:20:36;14.00;66.70
19214;DHT22;9741;51.020;5.304;2023-03-09T16:23:04;14.00;66.80
19214;DHT22;9741;51.020;5.304;2023-03-09T16:25:34;14.00;66.90
19214;DHT22;9741;51.020;5.304;2023-03-09T16:28:01;13.90;66.80
19214;DHT22;9741;51.020;5.304;2023-03-09T16:30:34;13.90;66.90
19214;DHT22;9741;51.020;5.304;2023-03-09T16:33:02;13.80;66.80